createdAt,value
2018-12-29T00:00:27.920Z,19.53
2018-12-29T00:02:57.406Z,19.33
2018-12-29T00:05:26.827Z,19.20
2018-12-29T00:07:56.217Z,20.60
2018-12-29T00:10:25.643Z,20.20
2018-12-29T00:12:55.293Z,18.80
2018-12-29T00:15:24.780Z,19.33
2018-12-29T00:17:54.238Z,20.37
2018-12-29T00:20:23.492Z,20.07
2018-12-29T00:22:52.785Z,19.53
2018-12-29T00:25:22.457Z,15.53
2018-12-29T00:27:51.741Z,17.30
2018-12-29T00:30:21.111Z,18.93
2018-12-29T00:32:50.346Z,17.70
2018-12-29T00:35:19.745Z,20.60
2018-12-29T00:37:49.043Z,18.77
2018-12-29T00:40:18.795Z,20.13
2018-12-29T00:42:48.124Z,19.60
2018-12-29T00:45:17.426Z,16.87
2018-12-29T00:47:46.700Z,19.77
2018-12-29T00:50:16.023Z,20.33
2018-12-29T00:52:45.560Z,18.77
2018-12-29T00:55:15.321Z,15.27
2018-12-29T00:57:44.769Z,15.53
2018-12-29T01:00:14.572Z,18.03
2018-12-29T01:02:43.871Z,19.30
2018-12-29T01:05:13.222Z,13.27
2018-12-29T01:07:42.956Z,18.07
2018-12-29T01:10:12.454Z,16.07
2018-12-29T01:12:41.776Z,19.67
2018-12-29T01:15:10.978Z,18.70
2018-12-29T01:17:40.317Z,21.53
2018-12-29T01:20:09.641Z,19.90
2018-12-29T01:22:38.895Z,17.37
2018-12-29T01:25:08.203Z,18.90
2018-12-29T01:27:37.511Z,17.40
2018-12-29T01:30:07.975Z,16.03
2018-12-29T01:32:37.206Z,18.57
2018-12-29T01:35:06.776Z,20.33
2018-12-29T01:37:36.034Z,19.07
2018-12-29T01:40:05.927Z,17.13
2018-12-29T01:42:35.220Z,15.73
2018-12-29T01:45:05.136Z,18.03
2018-12-29T01:47:34.557Z,17.57
2018-12-29T01:50:04.069Z,15.93
2018-12-29T01:52:33.346Z,19.13
2018-12-29T01:55:02.618Z,17.50
2018-12-29T01:57:31.859Z,19.13
2018-12-29T02:00:01.523Z,14.87
2018-12-29T02:02:30.934Z,18.93
2018-12-29T02:05:00.269Z,16.77
2018-12-29T02:07:29.600Z,15.90
2018-12-29T02:09:58.935Z,18.27
2018-12-29T02:12:28.263Z,19.40
2018-12-29T02:14:57.564Z,19.77
2018-12-29T02:17:27.135Z,17.43
2018-12-29T02:19:56.781Z,20.03
2018-12-29T02:22:26.021Z,14.40
2018-12-29T02:24:55.292Z,14.97
2018-12-29T02:27:24.444Z,15.87
2018-12-29T02:29:53.926Z,16.00
2018-12-29T02:32:23.430Z,18.80
2018-12-29T02:34:52.780Z,17.47
2018-12-29T02:37:22.051Z,19.27
2018-12-29T02:39:51.292Z,19.60
2018-12-29T02:42:20.616Z,20.23
2018-12-29T02:44:49.836Z,19.80
2018-12-29T02:47:19.128Z,20.73
2018-12-29T02:49:48.451Z,21.87
2018-12-29T02:52:17.805Z,16.20
2018-12-29T02:54:47.554Z,18.23
2018-12-29T02:57:16.880Z,20.43
2018-12-29T02:59:46.177Z,20.80
2018-12-29T03:02:15.578Z,17.87
2018-12-29T03:04:44.861Z,19.67
2018-12-29T03:07:14.081Z,19.93
2018-12-29T03:09:43.661Z,18.73
2018-12-29T03:12:12.880Z,18.47
2018-12-29T03:14:42.117Z,18.73
2018-12-29T03:17:11.363Z,19.10
2018-12-29T03:19:40.690Z,18.60
2018-12-29T03:22:29.195Z,20.20
2018-12-29T03:24:58.433Z,18.73
2018-12-29T03:27:27.680Z,19.30
2018-12-29T03:29:56.906Z,19.90
2018-12-29T03:32:26.181Z,19.33
2018-12-29T03:34:55.393Z,14.73
2018-12-29T03:37:24.685Z,15.53
2018-12-29T03:39:53.856Z,18.53
2018-12-29T03:42:23.117Z,18.73
2018-12-29T03:44:52.304Z,20.10
2018-12-29T03:47:21.533Z,21.63
2018-12-29T03:49:50.734Z,16.27
2018-12-29T03:52:19.922Z,18.07
2018-12-29T03:54:49.199Z,20.10
2018-12-29T03:57:18.409Z,19.57
2018-12-29T03:59:47.583Z,18.00
2018-12-29T04:02:16.846Z,15.37
2018-12-29T04:04:46.051Z,18.27
2018-12-29T04:07:15.408Z,20.00
2018-12-29T04:09:44.753Z,19.47
2018-12-29T04:12:19.924Z,18.07
2018-12-29T04:14:49.163Z,19.00
2018-12-29T04:17:18.423Z,19.23
2018-12-29T04:19:47.600Z,18.73
2018-12-29T04:22:16.817Z,17.83
2018-12-29T04:24:46.130Z,18.53
2018-12-29T04:27:15.306Z,15.67
2018-12-29T04:29:44.592Z,17.60
2018-12-29T04:32:13.753Z,18.97
2018-12-29T04:34:43.038Z,17.07
2018-12-29T04:37:12.267Z,18.87
2018-12-29T04:39:41.808Z,18.20
2018-12-29T04:42:11.198Z,19.83
2018-12-29T04:44:40.397Z,19.53
2018-12-29T04:47:09.695Z,17.97
2018-12-29T04:49:38.978Z,18.20
2018-12-29T04:52:08.266Z,18.20
2018-12-29T04:54:37.500Z,19.60
2018-12-29T04:57:06.797Z,18.40
2018-12-29T04:59:35.947Z,18.50
2018-12-29T05:02:05.145Z,17.60
2018-12-29T05:04:34.321Z,18.00
2018-12-29T05:07:03.581Z,15.17
2018-12-29T05:09:32.820Z,16.30
2018-12-29T05:12:02.052Z,19.30
2018-12-29T05:14:31.291Z,18.97
2018-12-29T05:17:00.475Z,17.70
2018-12-29T05:19:29.647Z,19.70
2018-12-29T05:21:58.927Z,18.30
2018-12-29T05:24:28.189Z,16.47
2018-12-29T05:26:57.421Z,18.37
2018-12-29T05:29:26.622Z,16.40
2018-12-29T05:31:55.844Z,18.40
2018-12-29T05:34:25.091Z,17.07
2018-12-29T05:36:54.275Z,16.93
2018-12-29T05:39:26.293Z,17.47
2018-12-29T05:41:55.573Z,14.73
2018-12-29T05:44:24.777Z,19.27
2018-12-29T05:46:53.980Z,16.90
2018-12-29T05:49:23.163Z,17.77
2018-12-29T05:51:52.364Z,19.13
2018-12-29T05:54:21.652Z,18.30
2018-12-29T05:56:50.849Z,17.97
2018-12-29T05:59:20.116Z,17.93
2018-12-29T06:01:49.372Z,18.07
2018-12-29T06:04:18.662Z,18.57
2018-12-29T06:06:47.812Z,17.23
2018-12-29T06:09:17.076Z,17.50
2018-12-29T06:11:46.254Z,18.47
2018-12-29T06:14:15.564Z,16.23
2018-12-29T06:16:44.751Z,17.30
2018-12-29T06:19:13.925Z,19.77
2018-12-29T06:21:43.111Z,18.27
2018-12-29T06:24:12.417Z,18.77
2018-12-29T06:26:41.602Z,18.50
2018-12-29T06:29:10.919Z,17.13
2018-12-29T06:31:40.171Z,17.43
2018-12-29T06:34:09.391Z,18.17
2018-12-29T06:36:39.373Z,17.47
2018-12-29T06:39:08.997Z,18.27
2018-12-29T06:41:38.181Z,17.97
2018-12-29T06:44:07.327Z,16.80
2018-12-29T06:46:36.495Z,18.73
2018-12-29T06:49:05.739Z,19.17
2018-12-29T06:51:34.914Z,19.70
2018-12-29T06:54:04.091Z,18.67
2018-12-29T06:56:33.375Z,17.50
2018-12-29T06:59:02.603Z,18.70
2018-12-29T07:01:31.808Z,16.80
2018-12-29T07:04:01.037Z,15.90
2018-12-29T07:06:30.346Z,17.67
2018-12-29T07:08:59.522Z,16.13
2018-12-29T07:11:28.688Z,12.27
2018-12-29T07:13:57.893Z,17.40
2018-12-29T07:16:27.115Z,13.47
2018-12-29T07:18:56.307Z,17.90
2018-12-29T07:21:25.591Z,13.27
2018-12-29T07:23:54.753Z,14.17
2018-12-29T07:26:23.973Z,19.23
2018-12-29T07:28:53.127Z,13.30
2018-12-29T07:31:22.386Z,23.83
2018-12-29T07:33:51.665Z,20.70
2018-12-29T07:36:20.935Z,15.10
2018-12-29T07:38:50.126Z,15.80
2018-12-29T07:41:19.413Z,13.87
2018-12-29T07:43:48.698Z,17.20
2018-12-29T07:46:17.855Z,14.93
2018-12-29T07:48:47.147Z,18.53
2018-12-29T07:51:16.326Z,16.03
2018-12-29T07:53:45.559Z,15.77
2018-12-29T07:56:14.762Z,17.80
2018-12-29T07:58:44.042Z,13.43
2018-12-29T08:01:13.321Z,15.97
2018-12-29T08:03:42.547Z,17.97
2018-12-29T08:06:11.784Z,14.33
2018-12-29T08:08:41.045Z,17.97
2018-12-29T08:11:10.264Z,18.33
2018-12-29T08:13:39.543Z,18.33
2018-12-29T08:16:08.900Z,14.10
2018-12-29T08:18:38.390Z,19.17
2018-12-29T08:21:07.576Z,19.30
2018-12-29T08:23:36.788Z,18.60
2018-12-29T08:26:06.149Z,19.07
2018-12-29T08:28:35.468Z,17.97
2018-12-29T08:31:04.784Z,17.43
2018-12-29T08:33:33.976Z,16.77
2018-12-29T08:36:03.203Z,17.13
2018-12-29T08:38:32.455Z,15.50
2018-12-29T08:41:01.720Z,18.33
2018-12-29T08:43:30.913Z,17.00
2018-12-29T08:46:00.323Z,16.30
2018-12-29T08:48:29.496Z,15.50
2018-12-29T08:50:58.716Z,14.57
2018-12-29T08:53:27.905Z,10.90
2018-12-29T08:55:57.194Z,14.23
2018-12-29T08:58:26.355Z,16.23
2018-12-29T09:00:55.647Z,18.90
2018-12-29T09:03:24.858Z,15.70
2018-12-29T09:05:54.184Z,14.57
2018-12-29T09:08:23.388Z,16.73
2018-12-29T09:10:52.608Z,18.97
2018-12-29T09:13:21.916Z,16.67
2018-12-29T09:15:52.036Z,16.53
2018-12-29T09:18:21.277Z,17.67
2018-12-29T09:20:50.558Z,18.10
2018-12-29T09:23:20.107Z,18.23
2018-12-29T09:25:49.506Z,16.40
2018-12-29T09:28:18.778Z,18.80
2018-12-29T09:30:48.154Z,18.77
2018-12-29T09:33:17.456Z,15.33
2018-12-29T09:35:46.621Z,21.10
2018-12-29T09:38:15.838Z,20.53
2018-12-29T09:40:45.042Z,20.40
2018-12-29T09:43:14.318Z,14.53
2018-12-29T09:45:43.520Z,17.27
2018-12-29T09:48:12.780Z,20.40
2018-12-29T09:50:42.198Z,20.90
2018-12-29T09:53:11.878Z,19.60
2018-12-29T09:55:41.172Z,22.63
2018-12-29T09:58:10.436Z,21.83
2018-12-29T10:00:39.655Z,19.20
2018-12-29T10:03:08.937Z,19.20
2018-12-29T10:05:38.172Z,16.23
2018-12-29T10:08:07.471Z,16.83
2018-12-29T10:10:36.812Z,23.20
2018-12-29T10:13:06.028Z,15.80
2018-12-29T10:15:35.269Z,22.33
2018-12-29T10:18:04.453Z,16.47
2018-12-29T10:20:33.747Z,23.37
2018-12-29T10:23:02.993Z,20.50
2018-12-29T10:25:32.211Z,23.03
2018-12-29T10:28:01.781Z,22.37
2018-12-29T10:30:31.128Z,20.67
2018-12-29T10:33:00.320Z,24.07
2018-12-29T10:35:29.971Z,24.87
2018-12-29T10:37:59.217Z,24.93
2018-12-29T10:40:28.467Z,21.30
2018-12-29T10:42:57.715Z,18.20
2018-12-29T10:45:26.998Z,25.80
2018-12-29T10:47:56.210Z,25.17
2018-12-29T10:50:25.711Z,17.53
2018-12-29T10:52:55.047Z,24.60
2018-12-29T10:55:24.287Z,23.93
2018-12-29T10:57:53.479Z,24.57
2018-12-29T11:00:22.745Z,17.77
2018-12-29T11:02:51.963Z,22.27
2018-12-29T11:05:21.270Z,23.30
2018-12-29T11:07:50.588Z,17.93
2018-12-29T11:10:19.811Z,20.37
2018-12-29T11:12:49.120Z,24.00
2018-12-29T11:15:18.300Z,18.30
2018-12-29T11:17:47.643Z,19.37
2018-12-29T11:20:16.862Z,25.20
2018-12-29T11:22:46.164Z,23.60
2018-12-29T11:25:15.447Z,19.43
2018-12-29T11:27:44.688Z,21.77
2018-12-29T11:30:13.929Z,26.17
2018-12-29T11:32:43.392Z,24.13
2018-12-29T11:35:12.679Z,22.23
2018-12-29T11:37:41.968Z,25.87
2018-12-29T11:40:11.173Z,25.17
2018-12-29T11:42:40.483Z,25.73
2018-12-29T11:45:09.792Z,25.43
2018-12-29T11:47:39.320Z,23.27
2018-12-29T11:50:09.065Z,25.30
2018-12-29T11:52:38.484Z,25.27
2018-12-29T11:55:07.872Z,19.30
2018-12-29T11:57:37.082Z,21.03
2018-12-29T12:00:08.422Z,21.53
2018-12-29T12:02:37.738Z,20.43
2018-12-29T12:05:08.572Z,27.87
2018-12-29T12:07:37.828Z,23.83
2018-12-29T12:10:07.057Z,22.40
2018-12-29T12:12:36.909Z,19.93
2018-12-29T12:15:07.310Z,24.23
2018-12-29T12:17:36.672Z,25.97
2018-12-29T12:20:06.581Z,26.03
2018-12-29T12:22:35.867Z,26.67
2018-12-29T12:25:05.192Z,23.10
2018-12-29T12:27:34.388Z,23.67
2018-12-29T12:30:04.426Z,26.37
2018-12-29T12:32:33.680Z,25.20
2018-12-29T12:35:03.435Z,23.43
2018-12-29T12:37:33.065Z,26.67
2018-12-29T12:40:02.326Z,24.33
2018-12-29T12:42:31.698Z,27.30
2018-12-29T12:45:01.699Z,24.37
2018-12-29T12:47:31.047Z,23.83
2018-12-29T12:50:00.496Z,24.47
2018-12-29T12:52:30.282Z,21.20
2018-12-29T12:54:59.635Z,22.20
2018-12-29T12:57:28.971Z,24.83
2018-12-29T12:59:58.539Z,22.27
2018-12-29T13:02:28.356Z,22.10
2018-12-29T13:04:57.575Z,24.93
2018-12-29T13:07:26.805Z,20.17
2018-12-29T13:09:56.098Z,17.97
2018-12-29T13:12:25.372Z,22.40
2018-12-29T13:14:54.570Z,24.13
2018-12-29T13:17:23.815Z,22.97
2018-12-29T13:19:53.041Z,19.20
2018-12-29T13:22:22.355Z,19.50
2018-12-29T13:24:51.615Z,20.80
2018-12-29T13:27:20.908Z,23.67
2018-12-29T13:29:50.197Z,23.27
2018-12-29T13:32:19.682Z,20.70
2018-12-29T13:34:49.026Z,22.03
2018-12-29T13:37:18.355Z,22.40
2018-12-29T13:39:47.584Z,19.03
2018-12-29T13:42:16.886Z,20.17
2018-12-29T13:44:46.077Z,14.97
2018-12-29T13:47:15.275Z,16.47
2018-12-29T13:49:44.998Z,22.27
2018-12-29T13:52:14.620Z,21.27
2018-12-29T13:54:43.836Z,22.37
2018-12-29T13:57:13.130Z,20.17
2018-12-29T13:59:42.552Z,20.80
2018-12-29T14:02:11.838Z,20.40
2018-12-29T14:04:42.824Z,21.63
2018-12-29T14:07:12.048Z,20.20
2018-12-29T14:09:41.254Z,20.17
2018-12-29T14:12:10.940Z,16.70
2018-12-29T14:14:40.671Z,21.77
2018-12-29T14:17:09.990Z,20.03
2018-12-29T14:19:39.421Z,21.87
2018-12-29T14:22:08.738Z,15.60
2018-12-29T14:24:38.044Z,16.33
2018-12-29T14:27:07.772Z,22.00
2018-12-29T14:29:37.060Z,18.87
2018-12-29T14:32:06.499Z,20.27
2018-12-29T14:34:35.943Z,18.40
2018-12-29T14:37:05.440Z,19.03
2018-12-29T14:39:34.865Z,18.40
2018-12-29T14:42:04.102Z,14.33
2018-12-29T14:44:33.469Z,20.23
2018-12-29T14:47:03.298Z,20.80
2018-12-29T14:49:32.619Z,21.37
2018-12-29T14:52:01.845Z,20.60
2018-12-29T14:54:31.185Z,22.00
2018-12-29T14:57:00.538Z,20.07
2018-12-29T14:59:29.883Z,21.50
2018-12-29T15:01:59.177Z,20.60
2018-12-29T15:04:28.465Z,14.67
2018-12-29T15:06:58.072Z,18.80
2018-12-29T15:09:27.480Z,14.73
2018-12-29T15:11:56.919Z,21.47
2018-12-29T15:14:26.328Z,17.87
2018-12-29T15:16:55.853Z,18.40
2018-12-29T15:19:25.255Z,19.43
2018-12-29T15:21:54.650Z,20.97
2018-12-29T15:24:23.834Z,21.87
2018-12-29T15:26:53.208Z,21.70
2018-12-29T15:29:22.992Z,21.50
2018-12-29T15:31:52.372Z,20.60
2018-12-29T15:34:21.692Z,20.53
2018-12-29T15:36:50.999Z,21.33
2018-12-29T15:39:20.865Z,16.47
2018-12-29T15:41:50.196Z,21.17
2018-12-29T15:44:19.480Z,15.67
2018-12-29T15:46:48.670Z,12.93
2018-12-29T15:49:17.966Z,20.40
2018-12-29T15:51:47.316Z,13.27
2018-12-29T15:54:16.529Z,17.43
2018-12-29T15:56:45.772Z,19.67
2018-12-29T15:59:14.973Z,21.00
2018-12-29T16:01:44.150Z,20.90
2018-12-29T16:04:13.404Z,15.93
2018-12-29T16:06:42.819Z,22.23
2018-12-29T16:09:12.044Z,23.60
2018-12-29T16:11:41.618Z,23.43
2018-12-29T16:14:10.872Z,22.60
2018-12-29T16:16:40.619Z,22.23
2018-12-29T16:19:10.036Z,22.40
2018-12-29T16:21:39.616Z,23.13
2018-12-29T16:24:09.211Z,23.57
2018-12-29T16:26:38.500Z,23.97
2018-12-29T16:29:07.883Z,23.70
2018-12-29T16:31:37.867Z,25.47
2018-12-29T16:34:08.718Z,20.87
2018-12-29T16:36:38.028Z,25.13
2018-12-29T16:39:08.131Z,27.30
2018-12-29T16:41:37.398Z,28.03
2018-12-29T16:44:06.622Z,29.63
2018-12-29T16:46:36.767Z,28.90
2018-12-29T16:49:06.942Z,28.10
2018-12-29T16:51:36.436Z,28.80
2018-12-29T16:54:05.668Z,26.03
2018-12-29T16:56:35.430Z,26.30
2018-12-29T16:59:04.838Z,26.93
2018-12-29T17:01:34.139Z,26.30
2018-12-29T17:04:03.385Z,25.37
2018-12-29T17:06:32.907Z,23.23
2018-12-29T17:09:02.166Z,22.53
2018-12-29T17:11:31.484Z,21.60
2018-12-29T17:14:01.062Z,22.40
2018-12-29T17:16:30.271Z,24.83
2018-12-29T17:18:59.485Z,25.20
2018-12-29T17:21:28.817Z,24.67
2018-12-29T17:23:58.075Z,18.77
2018-12-29T17:26:27.435Z,18.30
2018-12-29T17:28:56.796Z,26.80
2018-12-29T17:31:26.048Z,24.87
2018-12-29T17:33:55.422Z,25.37
2018-12-29T17:36:25.032Z,20.57
2018-12-29T17:38:54.258Z,16.87
2018-12-29T17:41:23.564Z,21.37
2018-12-29T17:43:53.147Z,17.63
2018-12-29T17:46:22.414Z,22.53
2018-12-29T17:48:52.041Z,19.10
2018-12-29T17:51:21.313Z,24.70
2018-12-29T17:53:50.679Z,23.17
2018-12-29T17:56:20.383Z,21.07
2018-12-29T17:58:49.919Z,21.67
2018-12-29T18:01:19.214Z,21.90
2018-12-29T18:03:48.399Z,19.77
2018-12-29T18:06:17.614Z,18.20
2018-12-29T18:08:47.274Z,23.67
2018-12-29T18:11:16.661Z,21.73
2018-12-29T18:13:46.284Z,20.27
2018-12-29T18:16:35.023Z,17.77
2018-12-29T18:19:04.319Z,18.57
2018-12-29T18:21:33.547Z,21.97
2018-12-29T18:24:02.985Z,20.20
2018-12-29T18:26:32.184Z,19.07
2018-12-29T18:29:01.436Z,18.47
2018-12-29T18:31:30.823Z,16.90
2018-12-29T18:34:00.198Z,19.90
2018-12-29T18:36:29.683Z,16.57
2018-12-29T18:38:59.013Z,17.87
2018-12-29T18:41:28.501Z,19.03
2018-12-29T18:43:57.769Z,15.90
2018-12-29T18:46:26.972Z,16.33
2018-12-29T18:48:56.363Z,19.33
2018-12-29T18:51:25.671Z,14.10
2018-12-29T18:53:55.485Z,18.43
2018-12-29T18:56:25.593Z,19.10
2018-12-29T18:58:54.942Z,18.10
2018-12-29T19:01:24.363Z,15.53
2018-12-29T19:03:54.065Z,13.23
2018-12-29T19:06:23.473Z,12.80
2018-12-29T19:08:52.857Z,13.03
2018-12-29T19:11:22.128Z,11.93
2018-12-29T19:13:51.436Z,12.73
2018-12-29T19:16:20.840Z,11.30
2018-12-29T19:18:50.393Z,9.63
2018-12-29T19:21:21.342Z,7.30
2018-12-29T19:23:50.949Z,7.37
2018-12-29T19:26:20.517Z,7.60
2018-12-29T19:28:50.206Z,5.87
2018-12-29T19:31:19.881Z,5.50
2018-12-29T19:33:49.131Z,5.70
2018-12-29T19:36:18.353Z,5.70
2018-12-29T19:38:48.142Z,5.93
2018-12-29T19:41:17.716Z,6.27
2018-12-29T19:43:47.517Z,5.60
2018-12-29T19:46:17.185Z,5.47
2018-12-29T19:48:46.474Z,6.33
2018-12-29T19:51:16.097Z,5.60
2018-12-29T19:53:45.902Z,5.83
2018-12-29T19:56:15.109Z,4.90
2018-12-29T19:58:44.390Z,4.67
2018-12-29T20:01:13.992Z,5.37
2018-12-29T20:03:43.224Z,5.83
2018-12-29T20:06:12.529Z,5.13
2018-12-29T20:08:41.841Z,5.73
2018-12-29T20:11:11.162Z,5.57
2018-12-29T20:13:40.421Z,6.10
2018-12-29T20:16:09.726Z,6.03
2018-12-29T20:18:38.956Z,6.30
2018-12-29T20:21:08.256Z,5.70
2018-12-29T20:23:37.540Z,6.03
2018-12-29T20:26:07.240Z,5.90
2018-12-29T20:28:36.518Z,5.63
2018-12-29T20:31:05.836Z,5.70
2018-12-29T20:33:35.089Z,6.27
2018-12-29T20:36:04.379Z,7.33
2018-12-29T20:38:33.606Z,8.43
2018-12-29T20:41:02.936Z,8.20
2018-12-29T20:43:32.338Z,8.47
2018-12-29T20:46:01.830Z,7.77
2018-12-29T20:48:31.197Z,7.20
2018-12-29T20:51:00.565Z,7.07
2018-12-29T20:53:29.929Z,7.97
2018-12-29T20:55:59.314Z,7.13
2018-12-29T20:58:29.273Z,9.23
2018-12-29T21:00:58.698Z,7.43
2018-12-29T21:03:28.011Z,10.07
2018-12-29T21:05:57.356Z,9.83
2018-12-29T21:08:27.022Z,9.63
2018-12-29T21:10:56.392Z,9.43
2018-12-29T21:13:25.729Z,9.40
2018-12-29T21:15:54.985Z,11.23
2018-12-29T21:18:24.176Z,9.93
2018-12-29T21:20:53.556Z,12.03
2018-12-29T21:23:23.195Z,9.40
2018-12-29T21:25:52.528Z,12.13
2018-12-29T21:28:21.864Z,9.20
2018-12-29T21:30:51.261Z,10.23
2018-12-29T21:33:20.625Z,12.47
2018-12-29T21:35:50.141Z,10.87
2018-12-29T21:38:19.449Z,8.83
2018-12-29T21:40:48.683Z,9.90
2018-12-29T21:43:18.085Z,10.80
2018-12-29T21:45:47.378Z,8.10
2018-12-29T21:48:16.692Z,9.73
2018-12-29T21:50:46.055Z,8.27
2018-12-29T21:53:15.374Z,8.03
2018-12-29T21:55:44.567Z,7.40
2018-12-29T21:58:13.829Z,7.93
2018-12-29T22:00:43.209Z,7.83
2018-12-29T22:03:12.737Z,7.00
2018-12-29T22:05:42.041Z,8.97
2018-12-29T22:08:11.360Z,8.53
2018-12-29T22:10:40.740Z,6.97
2018-12-29T22:13:10.061Z,7.70
2018-12-29T22:15:39.731Z,6.73
2018-12-29T22:18:09.004Z,8.00
2018-12-29T22:20:38.364Z,6.93
2018-12-29T22:23:07.687Z,6.23
2018-12-29T22:25:36.924Z,6.37
2018-12-29T22:28:06.859Z,4.77
2018-12-29T22:30:36.148Z,5.00
2018-12-29T22:33:05.401Z,4.00
2018-12-29T22:35:34.818Z,2.57
2018-12-29T22:38:04.118Z,2.50
2018-12-29T22:40:34.048Z,1.57
2018-12-29T22:43:03.261Z,1.70
2018-12-29T22:45:32.461Z,1.60
2018-12-29T22:48:01.688Z,1.30
2018-12-29T22:50:30.913Z,1.80
2018-12-29T22:53:00.258Z,1.47
2018-12-29T22:55:29.461Z,1.50
2018-12-29T22:57:58.672Z,1.90
2018-12-29T23:00:44.705Z,1.63
2018-12-29T23:03:14.062Z,1.80
2018-12-29T23:05:43.740Z,1.80
2018-12-29T23:08:13.004Z,1.93
2018-12-29T23:10:42.321Z,1.90
2018-12-29T23:13:11.616Z,1.90
2018-12-29T23:15:40.909Z,2.07
2018-12-29T23:18:10.298Z,1.73
2018-12-29T23:20:40.022Z,2.00
2018-12-29T23:23:09.371Z,2.20
2018-12-29T23:25:38.741Z,2.50
2018-12-29T23:28:08.060Z,2.40
2018-12-29T23:30:37.362Z,2.80
2018-12-29T23:33:06.596Z,3.10
2018-12-29T23:35:35.816Z,2.83
2018-12-29T23:38:05.732Z,3.00
2018-12-29T23:40:34.985Z,2.73
2018-12-29T23:43:04.380Z,3.07
2018-12-29T23:45:34.133Z,2.80
2018-12-29T23:48:03.406Z,3.40
2018-12-29T23:50:32.715Z,3.47
2018-12-29T23:53:02.501Z,4.40
2018-12-29T23:55:32.051Z,4.10
2018-12-29T23:58:01.337Z,4.17
